createdAt,value
2022-09-10T00:01:27.439Z,0.50
2022-09-10T00:03:57.100Z,0.50
2022-09-10T00:06:28.157Z,0.63
2022-09-10T00:08:57.996Z,0.40
2022-09-10T00:11:27.744Z,0.47
2022-09-10T00:13:57.346Z,0.43
2022-09-10T00:16:25.591Z,0.40
2022-09-10T00:18:53.704Z,0.40
2022-09-10T00:21:25.212Z,0.43
2022-09-10T00:23:54.530Z,0.30
2022-09-10T00:26:24.260Z,0.50
2022-09-10T00:28:54.398Z,0.40
2022-09-10T00:31:23.913Z,0.43
2022-09-10T00:33:54.793Z,0.40
2022-09-10T00:36:26.709Z,0.90
2022-09-10T00:38:57.814Z,4.40
2022-09-10T00:41:26.021Z,4.60
2022-09-10T00:43:57.976Z,3.80
2022-09-10T00:46:33.592Z,3.13
2022-09-10T00:49:05.339Z,1.47
2022-09-10T00:51:36.940Z,1.47
2022-09-10T00:54:05.559Z,1.80
2022-09-10T00:56:34.641Z,1.60
2022-09-10T00:59:03.917Z,1.00
2022-09-10T01:01:33.558Z,0.60
2022-09-10T01:04:02.235Z,0.60
2022-09-10T01:06:30.435Z,0.73
2022-09-10T01:09:04.078Z,0.50
2022-09-10T01:11:59.444Z,0.40
2022-09-10T01:14:49.146Z,0.50
2022-09-10T01:17:25.785Z,0.40
2022-09-10T01:20:29.094Z,0.50
2022-09-10T01:23:15.689Z,0.47
2022-09-10T01:25:53.098Z,0.50
2022-09-10T01:28:29.005Z,0.40
2022-09-10T01:30:59.790Z,0.70
2022-09-10T01:33:31.711Z,0.60
2022-09-10T01:36:02.375Z,0.50
2022-09-10T01:38:34.299Z,0.50
2022-09-10T01:41:02.961Z,0.50
2022-09-10T01:43:33.828Z,1.07
2022-09-10T01:46:14.583Z,0.50
2022-09-10T01:49:01.701Z,0.40
2022-09-10T01:51:36.946Z,0.40
2022-09-10T01:54:24.963Z,0.50
2022-09-10T01:57:00.217Z,0.40
2022-09-10T01:59:35.955Z,0.80
2022-09-10T02:02:10.322Z,0.50
2022-09-10T02:04:38.781Z,0.40
2022-09-10T02:07:08.326Z,0.40
2022-09-10T02:09:36.501Z,0.63
2022-09-10T02:12:05.031Z,0.53
2022-09-10T02:14:35.050Z,0.43
2022-09-10T02:17:04.108Z,0.80
2022-09-10T02:19:32.499Z,0.50
2022-09-10T02:22:01.036Z,0.47
2022-09-10T02:24:29.261Z,0.40
2022-09-10T02:26:57.285Z,0.60
2022-09-10T02:29:25.632Z,0.47
2022-09-10T02:31:55.187Z,0.77
2022-09-10T02:34:24.238Z,0.60
2022-09-10T02:36:52.675Z,0.50
2022-09-10T02:39:21.381Z,0.57
2022-09-10T02:41:49.468Z,0.47
2022-09-10T02:44:17.826Z,0.40
2022-09-10T02:46:46.047Z,0.50
2022-09-10T02:49:15.500Z,0.40
2022-09-10T02:51:44.846Z,0.80
2022-09-10T02:54:12.992Z,0.50
2022-09-10T02:56:41.427Z,0.50
2022-09-10T02:59:10.590Z,0.50
2022-09-10T03:01:38.789Z,0.50
2022-09-10T03:04:08.080Z,0.50
2022-09-10T03:06:38.224Z,0.40
2022-09-10T03:09:06.756Z,0.43
2022-09-10T03:11:35.737Z,0.60
2022-09-10T03:14:03.943Z,0.47
2022-09-10T03:16:32.463Z,0.67
2022-09-10T03:19:00.592Z,0.50
2022-09-10T03:21:28.987Z,0.40
2022-09-10T03:23:58.541Z,0.50
2022-09-10T03:26:26.872Z,0.53
2022-09-10T03:28:55.248Z,0.50
2022-09-10T03:31:23.265Z,0.40
2022-09-10T03:33:52.003Z,0.50
2022-09-10T03:36:21.049Z,0.57
2022-09-10T03:38:49.316Z,0.60
2022-09-10T03:41:18.976Z,0.73
2022-09-10T03:43:47.504Z,0.47
2022-09-10T03:46:16.017Z,0.50
2022-09-10T03:48:44.487Z,0.53
2022-09-10T03:51:13.131Z,0.40
2022-09-10T03:53:42.049Z,0.50
2022-09-10T03:56:10.629Z,0.50
2022-09-10T03:58:40.298Z,0.67
2022-09-10T04:01:09.060Z,0.60
2022-09-10T04:03:37.244Z,0.50
2022-09-10T04:06:05.459Z,0.60
2022-09-10T04:08:34.039Z,0.50
2022-09-10T04:11:03.353Z,0.50
2022-09-10T04:13:32.480Z,0.70
2022-09-10T04:16:02.174Z,0.60
2022-09-10T04:18:32.306Z,0.70
2022-09-10T04:21:00.788Z,1.00
2022-09-10T04:23:29.862Z,1.00
2022-09-10T04:25:59.493Z,1.03
2022-09-10T04:28:27.607Z,0.60
2022-09-10T04:30:55.768Z,0.87
2022-09-10T04:33:26.310Z,0.60
2022-09-10T04:35:55.290Z,0.50
2022-09-10T04:38:23.291Z,0.70
2022-09-10T04:40:51.847Z,0.40
2022-09-10T04:43:20.373Z,0.50
2022-09-10T04:45:48.564Z,0.90
2022-09-10T04:48:16.700Z,0.60
2022-09-10T04:51:05.382Z,0.60
2022-09-10T04:53:34.473Z,0.43
2022-09-10T04:56:03.074Z,0.70
2022-09-10T04:58:34.251Z,0.70
2022-09-10T05:01:06.200Z,0.40
2022-09-10T05:03:34.530Z,0.97
2022-09-10T05:06:04.984Z,0.50
2022-09-10T05:08:34.176Z,0.87
2022-09-10T05:11:02.953Z,0.90
2022-09-10T05:13:32.091Z,1.57
2022-09-10T05:16:00.215Z,1.80
2022-09-10T05:18:28.731Z,2.03
2022-09-10T05:20:56.811Z,4.90
2022-09-10T05:23:27.442Z,4.10
2022-09-10T05:25:56.862Z,1.40
2022-09-10T05:28:25.104Z,1.10
2022-09-10T05:30:53.553Z,0.70
2022-09-10T05:33:24.966Z,0.80
2022-09-10T05:35:53.069Z,0.80
2022-09-10T05:38:22.428Z,0.60
2022-09-10T05:40:52.294Z,0.50
2022-09-10T05:43:20.658Z,0.60
2022-09-10T05:45:48.779Z,0.80
2022-09-10T05:48:17.731Z,0.73
2022-09-10T05:50:46.787Z,0.70
2022-09-10T05:53:15.366Z,0.70
2022-09-10T05:55:44.112Z,0.93
2022-09-10T05:58:14.331Z,0.90
2022-09-10T06:00:44.197Z,0.60
2022-09-10T06:03:15.180Z,0.90
2022-09-10T06:05:50.520Z,0.83
2022-09-10T06:08:19.353Z,0.80
2022-09-10T06:10:57.027Z,0.87
2022-09-10T06:13:30.603Z,0.80
2022-09-10T06:15:58.644Z,0.60
2022-09-10T06:18:26.782Z,0.70
2022-09-10T06:21:03.125Z,1.03
2022-09-10T06:23:31.536Z,0.70
2022-09-10T06:26:04.441Z,0.80
2022-09-10T06:28:34.856Z,0.87
2022-09-10T06:31:04.459Z,0.60
2022-09-10T06:33:33.329Z,1.37
2022-09-10T06:36:06.032Z,0.83
2022-09-10T06:38:36.392Z,0.73
2022-09-10T06:41:06.384Z,1.30
2022-09-10T06:43:37.352Z,1.00
2022-09-10T06:46:32.123Z,1.30
2022-09-10T06:49:00.973Z,1.30
2022-09-10T06:51:29.703Z,1.33
2022-09-10T06:53:58.174Z,1.53
2022-09-10T06:56:27.252Z,1.63
2022-09-10T06:59:02.161Z,2.20
2022-09-10T07:01:31.506Z,1.23
2022-09-10T07:04:01.133Z,0.97
2022-09-10T07:06:34.859Z,2.70
2022-09-10T07:09:03.325Z,1.33
2022-09-10T07:11:32.547Z,0.83
2022-09-10T07:14:02.259Z,1.10
2022-09-10T07:16:30.801Z,0.73
2022-09-10T07:19:00.937Z,0.80
2022-09-10T07:21:30.264Z,0.70
2022-09-10T07:24:01.402Z,1.00
2022-09-10T07:26:29.791Z,0.93
2022-09-10T07:28:58.582Z,0.90
2022-09-10T07:31:29.796Z,0.70
2022-09-10T07:33:58.806Z,0.50
2022-09-10T07:36:27.110Z,0.67
2022-09-10T07:38:57.598Z,0.70
2022-09-10T07:41:29.871Z,1.27
2022-09-10T07:43:58.981Z,1.10
2022-09-10T07:46:29.456Z,1.30
2022-09-10T07:48:59.281Z,0.80
2022-09-10T07:51:29.278Z,0.90
2022-09-10T07:53:59.096Z,1.13
2022-09-10T07:56:28.894Z,0.50
2022-09-10T07:58:57.592Z,0.60
2022-09-10T08:01:26.151Z,0.40
2022-09-10T08:04:00.398Z,0.80
2022-09-10T08:06:28.778Z,0.70
2022-09-10T08:08:57.582Z,0.53
2022-09-10T08:11:25.989Z,0.57
2022-09-10T08:13:56.955Z,0.60
2022-09-10T08:16:26.960Z,0.53
2022-09-10T08:18:57.315Z,0.60
2022-09-10T08:21:27.721Z,0.50
2022-09-10T08:23:56.240Z,0.63
2022-09-10T08:26:25.447Z,0.80
2022-09-10T08:28:53.962Z,0.60
2022-09-10T08:31:22.246Z,0.57
2022-09-10T08:33:51.516Z,0.70
2022-09-10T08:36:21.937Z,0.70
2022-09-10T08:38:53.743Z,0.53
2022-09-10T08:41:29.790Z,1.07
2022-09-10T08:44:00.505Z,0.70
2022-09-10T08:46:30.456Z,0.90
2022-09-10T08:49:08.349Z,0.90
2022-09-10T08:51:43.558Z,0.50
2022-09-10T08:54:18.455Z,0.60
2022-09-10T08:56:47.160Z,0.53
2022-09-10T08:59:21.783Z,0.53
2022-09-10T09:01:53.482Z,0.53
2022-09-10T09:04:32.975Z,0.53
2022-09-10T09:07:04.478Z,0.70
2022-09-10T09:09:33.972Z,0.67
2022-09-10T09:12:07.324Z,0.50
2022-09-10T09:14:46.490Z,0.50
2022-09-10T09:17:45.825Z,0.70
2022-09-10T09:20:18.602Z,1.13
2022-09-10T09:22:53.020Z,0.50
2022-09-10T09:25:27.365Z,0.60
2022-09-10T09:27:57.234Z,0.40
2022-09-10T09:30:27.544Z,1.10
2022-09-10T09:32:58.901Z,0.50
2022-09-10T09:35:28.757Z,0.50
2022-09-10T09:38:06.037Z,1.13
2022-09-10T09:40:42.042Z,0.50
2022-09-10T09:43:16.412Z,0.60
2022-09-10T09:45:45.608Z,0.60
2022-09-10T09:48:15.823Z,0.40
2022-09-10T09:50:46.077Z,0.50
2022-09-10T09:53:18.990Z,0.47
2022-09-10T09:55:52.129Z,0.47
2022-09-10T09:58:34.664Z,0.50
2022-09-10T10:01:16.521Z,0.63
2022-09-10T10:03:48.439Z,0.50
2022-09-10T10:06:17.177Z,0.63
2022-09-10T10:08:47.490Z,0.53
2022-09-10T10:11:19.788Z,0.70
2022-09-10T10:13:50.522Z,0.50
2022-09-10T10:16:22.714Z,0.53
2022-09-10T10:18:51.466Z,0.50
2022-09-10T10:21:22.367Z,0.50
2022-09-10T10:23:50.757Z,0.50
2022-09-10T10:26:28.580Z,0.40
2022-09-10T10:28:59.260Z,0.50
2022-09-10T10:31:36.322Z,0.53
2022-09-10T10:34:20.712Z,0.50
2022-09-10T10:36:56.347Z,0.83
2022-09-10T10:39:29.924Z,0.40
2022-09-10T10:42:06.757Z,0.30
2022-09-10T10:44:57.543Z,0.50
2022-09-10T10:47:39.915Z,0.40
2022-09-10T10:50:18.421Z,0.40
2022-09-10T10:52:54.348Z,0.30
2022-09-10T10:55:24.757Z,0.47
2022-09-10T10:58:22.167Z,0.50
2022-09-10T11:00:55.167Z,0.60
2022-09-10T11:03:28.026Z,0.50
2022-09-10T11:05:58.854Z,0.50
2022-09-10T11:08:31.272Z,0.50
2022-09-10T11:11:04.280Z,0.40
2022-09-10T11:13:38.370Z,0.40
2022-09-10T11:16:09.791Z,0.40
2022-09-10T11:18:44.035Z,0.50
2022-09-10T11:21:17.521Z,0.30
2022-09-10T11:23:49.440Z,0.40
2022-09-10T11:26:20.973Z,0.43
2022-09-10T11:28:58.231Z,0.40
2022-09-10T11:31:33.114Z,0.40
2022-09-10T11:34:05.390Z,0.40
2022-09-10T11:36:36.544Z,0.40
2022-09-10T11:39:11.649Z,0.60
2022-09-10T11:41:42.486Z,0.40
2022-09-10T11:44:37.060Z,0.40
2022-09-10T11:47:08.406Z,0.40
2022-09-10T11:49:42.946Z,0.47
2022-09-10T11:52:12.133Z,0.30
2022-09-10T11:54:40.493Z,0.37
2022-09-10T11:57:11.893Z,0.40
2022-09-10T11:59:51.728Z,0.80
2022-09-10T12:02:55.596Z,0.37
2022-09-10T12:05:29.021Z,0.40
2022-09-10T12:08:04.274Z,0.40
2022-09-10T12:10:35.509Z,0.40
2022-09-10T12:13:09.430Z,0.40
2022-09-10T12:15:39.178Z,0.50
2022-09-10T12:18:13.831Z,0.50
2022-09-10T12:20:44.381Z,0.47
2022-09-10T12:23:16.940Z,0.60
2022-09-10T12:25:45.139Z,0.40
2022-09-10T12:28:46.107Z,0.70
2022-09-10T12:31:19.327Z,0.50
2022-09-10T12:34:12.573Z,0.50
2022-09-10T12:37:17.839Z,0.60
2022-09-10T12:39:46.127Z,0.70
2022-09-10T12:42:34.457Z,0.70
2022-09-10T12:45:02.512Z,0.77
2022-09-10T12:47:47.016Z,0.90
2022-09-10T12:50:21.657Z,0.83
2022-09-10T12:53:02.905Z,0.90
2022-09-10T12:55:39.516Z,0.50
2022-09-10T12:58:13.482Z,0.67
2022-09-10T13:00:46.719Z,0.50
2022-09-10T13:03:18.515Z,0.60
2022-09-10T13:05:53.425Z,0.67
2022-09-10T13:08:25.782Z,1.80
2022-09-10T13:11:12.136Z,0.60
2022-09-10T13:13:42.237Z,0.50
2022-09-10T13:16:15.450Z,0.40
2022-09-10T13:18:46.672Z,0.50
2022-09-10T13:21:54.016Z,0.50
2022-09-10T13:24:38.497Z,0.40
2022-09-10T13:27:21.499Z,0.50
2022-09-10T13:29:52.635Z,0.60
2022-09-10T13:32:29.810Z,0.90
2022-09-10T13:35:33.854Z,0.57
2022-09-10T13:38:16.330Z,0.93
2022-09-10T13:41:01.204Z,0.47
2022-09-10T13:43:41.346Z,0.50
2022-09-10T13:46:12.592Z,0.70
2022-09-10T13:48:49.285Z,0.63
2022-09-10T13:51:36.268Z,0.50
2022-09-10T13:54:28.623Z,0.40
2022-09-10T13:56:57.356Z,0.40
2022-09-10T13:59:30.875Z,0.50
2022-09-10T14:01:59.519Z,0.77
2022-09-10T14:04:31.735Z,0.40
2022-09-10T14:07:09.202Z,0.60
2022-09-10T14:09:42.694Z,0.40
2022-09-10T14:12:13.882Z,0.40
2022-09-10T14:14:43.813Z,0.50
2022-09-10T14:17:14.968Z,0.60
2022-09-10T14:19:49.345Z,0.50
2022-09-10T14:22:22.222Z,0.47
2022-09-10T14:25:07.884Z,0.40
2022-09-10T14:27:37.550Z,0.50
2022-09-10T14:30:24.856Z,0.77
2022-09-10T14:32:53.488Z,1.40
2022-09-10T14:35:39.260Z,0.80
2022-09-10T14:38:26.078Z,0.40
2022-09-10T14:41:04.314Z,0.70
2022-09-10T14:46:51.761Z,0.40
2022-09-10T14:49:20.943Z,0.43
2022-09-10T14:51:48.924Z,0.40
2022-09-10T14:54:17.257Z,0.43
2022-09-10T14:56:47.801Z,0.50
2022-09-10T14:59:17.551Z,0.60
2022-09-10T15:01:48.264Z,0.60
2022-09-10T15:04:19.227Z,0.50
2022-09-10T15:06:47.294Z,0.40
2022-09-10T15:09:16.239Z,0.50
2022-09-10T15:11:51.588Z,0.70
2022-09-10T15:14:20.157Z,0.50
2022-09-10T15:16:50.485Z,0.40
2022-09-10T15:19:18.676Z,0.50
2022-09-10T15:21:47.051Z,0.70
2022-09-10T15:24:16.637Z,0.60
2022-09-10T15:26:47.144Z,0.50
2022-09-10T15:29:15.922Z,1.20
2022-09-10T15:31:44.788Z,1.20
2022-09-10T15:34:14.356Z,0.70
2022-09-10T15:36:42.850Z,0.50
2022-09-10T15:39:13.861Z,0.50
2022-09-10T15:41:43.561Z,0.50
2022-09-10T15:44:13.406Z,0.60
2022-09-10T15:46:42.409Z,0.60
2022-09-10T15:49:10.502Z,0.50
2022-09-10T15:51:39.415Z,0.47
2022-09-10T15:54:07.554Z,0.70
2022-09-10T15:56:36.715Z,0.43
2022-09-10T15:59:06.831Z,0.87
2022-09-10T16:01:38.369Z,0.70
2022-09-10T16:04:07.094Z,0.70
2022-09-10T16:06:37.703Z,0.50
2022-09-10T16:09:09.487Z,0.50
2022-09-10T16:11:40.046Z,1.53
2022-09-10T16:14:13.218Z,0.67
2022-09-10T16:16:43.158Z,0.60
2022-09-10T16:19:13.195Z,0.70
2022-09-10T16:21:41.355Z,1.07
2022-09-10T16:24:09.896Z,0.60
2022-09-10T16:26:39.842Z,1.10
2022-09-10T16:29:12.164Z,0.50
2022-09-10T16:31:40.255Z,0.30
2022-09-10T16:34:12.035Z,0.50
2022-09-10T16:36:40.914Z,0.50
2022-09-10T16:39:12.316Z,0.40
2022-09-10T16:41:41.534Z,0.50
2022-09-10T16:44:11.037Z,0.60
2022-09-10T16:46:39.874Z,0.63
2022-09-10T16:49:13.782Z,0.57
2022-09-10T16:51:43.231Z,0.57
2022-09-10T16:54:13.477Z,0.50
2022-09-10T16:56:42.772Z,0.60
2022-09-10T16:59:14.956Z,0.50
2022-09-10T17:01:44.397Z,0.60
2022-09-10T17:04:20.440Z,0.40
2022-09-10T17:06:50.984Z,0.80
2022-09-10T17:09:19.716Z,0.70
2022-09-10T17:11:48.035Z,0.70
2022-09-10T17:14:16.256Z,0.50
2022-09-10T17:16:45.303Z,0.67
2022-09-10T17:19:16.932Z,0.50
2022-09-10T17:21:51.463Z,0.63
2022-09-10T17:24:21.246Z,0.40
2022-09-10T17:26:50.376Z,0.40
2022-09-10T17:29:20.454Z,0.40
2022-09-10T17:31:48.937Z,0.40
2022-09-10T17:34:19.961Z,0.30
2022-09-10T17:36:48.945Z,0.40
2022-09-10T17:39:19.891Z,0.37
2022-09-10T17:41:48.427Z,0.40
2022-09-10T17:44:18.320Z,0.40
2022-09-10T17:46:46.563Z,0.37
2022-09-10T17:49:15.780Z,0.40
2022-09-10T17:51:46.216Z,0.40
2022-09-10T17:54:15.322Z,0.40
2022-09-10T17:56:43.919Z,0.30
2022-09-10T17:59:13.723Z,0.40
2022-09-10T18:01:43.698Z,0.50
2022-09-10T18:04:14.386Z,0.37
2022-09-10T18:06:43.830Z,0.53
2022-09-10T18:09:15.034Z,0.70
2022-09-10T18:11:43.403Z,0.40
2022-09-10T18:14:16.779Z,0.50
2022-09-10T18:16:46.159Z,0.60
2022-09-10T18:19:15.929Z,0.50
2022-09-10T18:21:48.461Z,0.47
2022-09-10T18:24:19.292Z,0.87
2022-09-10T18:26:48.680Z,0.50
2022-09-10T18:29:18.994Z,0.40
2022-09-10T18:31:48.715Z,0.40
2022-09-10T18:34:23.000Z,0.40
2022-09-10T18:36:58.910Z,0.40
2022-09-10T18:39:29.955Z,0.40
2022-09-10T18:41:58.995Z,0.40
2022-09-10T18:44:29.233Z,0.40
2022-09-10T18:46:57.678Z,0.60
2022-09-10T18:49:26.159Z,0.53
2022-09-10T18:51:55.274Z,0.60
2022-09-10T18:54:24.603Z,3.20
2022-09-10T18:56:54.780Z,0.70
2022-09-10T18:59:24.311Z,0.90
2022-09-10T19:01:57.477Z,0.60
2022-09-10T19:04:28.189Z,0.70
2022-09-10T19:07:08.798Z,0.80
2022-09-10T19:09:37.346Z,0.87
2022-09-10T19:12:08.756Z,0.80
2022-09-10T19:14:39.455Z,0.90
2022-09-10T19:17:07.458Z,0.50
2022-09-10T19:19:36.810Z,0.80
2022-09-10T19:22:07.377Z,4.10
2022-09-10T19:24:54.892Z,0.67
2022-09-10T19:27:27.107Z,1.90
2022-09-10T19:29:55.886Z,0.90
2022-09-10T19:32:24.152Z,0.40
2022-09-10T19:34:52.963Z,0.60
2022-09-10T19:37:21.465Z,0.70
2022-09-10T19:39:51.891Z,0.57
2022-09-10T19:42:24.352Z,0.83
2022-09-10T19:44:54.554Z,0.73
2022-09-10T19:47:23.836Z,0.80
2022-09-10T19:49:51.919Z,0.60
2022-09-10T19:52:21.646Z,0.57
2022-09-10T19:54:50.618Z,3.83
2022-09-10T19:57:18.861Z,0.70
2022-09-10T19:59:48.395Z,0.60
2022-09-10T20:02:20.325Z,0.60
2022-09-10T20:04:48.640Z,0.67
2022-09-10T20:07:16.762Z,0.87
2022-09-10T20:09:45.712Z,0.50
2022-09-10T20:12:16.245Z,0.70
2022-09-10T20:14:44.368Z,0.50
2022-09-10T20:17:13.549Z,0.47
2022-09-10T20:19:43.117Z,0.70
2022-09-10T20:22:11.223Z,0.77
2022-09-10T20:24:39.239Z,0.90
2022-09-10T20:27:07.522Z,0.70
2022-09-10T20:29:35.799Z,0.60
2022-09-10T20:32:04.168Z,0.70
2022-09-10T20:34:32.463Z,0.73
2022-09-10T20:37:03.137Z,0.70
2022-09-10T20:39:31.887Z,0.50
2022-09-10T20:42:00.151Z,0.70
2022-09-10T20:44:30.101Z,0.53
2022-09-10T20:46:58.379Z,0.80
2022-09-10T20:49:28.635Z,1.10
2022-09-10T20:51:57.381Z,0.80
2022-09-10T20:54:27.255Z,1.20
2022-09-10T20:56:55.435Z,0.70
2022-09-10T20:59:27.702Z,1.23
2022-09-10T21:01:56.623Z,1.40
2022-09-10T21:04:24.968Z,1.00
2022-09-10T21:06:53.187Z,0.60
2022-09-10T21:09:21.445Z,0.70
2022-09-10T21:11:50.879Z,0.63
2022-09-10T21:14:19.294Z,0.63
2022-09-10T21:16:47.445Z,1.07
2022-09-10T21:19:17.165Z,0.77
2022-09-10T21:21:46.064Z,1.87
2022-09-10T21:24:15.309Z,0.80
2022-09-10T21:26:44.214Z,0.60
2022-09-10T21:29:15.491Z,0.70
2022-09-10T21:31:46.118Z,0.63
2022-09-10T21:34:14.974Z,0.70
2022-09-10T21:36:45.916Z,0.60
2022-09-10T21:39:17.581Z,0.70
2022-09-10T21:41:47.562Z,2.03
2022-09-10T21:44:19.932Z,4.47
2022-09-10T21:46:48.741Z,5.57
2022-09-10T21:49:17.539Z,4.73
2022-09-10T21:51:46.016Z,3.63
2022-09-10T21:54:15.500Z,2.37
2022-09-10T21:56:43.675Z,1.23
2022-09-10T21:59:13.310Z,2.80
2022-09-10T22:01:44.922Z,3.10
2022-09-10T22:04:13.530Z,2.47
2022-09-10T22:06:41.722Z,1.20
2022-09-10T22:09:12.634Z,1.20
2022-09-10T22:11:42.765Z,0.80
2022-09-10T22:14:14.379Z,0.80
2022-09-10T22:16:45.605Z,0.90
2022-09-10T22:19:19.255Z,0.63
2022-09-10T22:21:47.434Z,0.90
2022-09-10T22:24:18.485Z,1.07
2022-09-10T22:26:47.966Z,0.80
2022-09-10T22:29:18.019Z,0.60
2022-09-10T22:31:48.029Z,0.60
2022-09-10T22:34:17.819Z,0.83
2022-09-10T22:36:47.407Z,0.90
2022-09-10T22:39:16.890Z,0.70
2022-09-10T22:41:45.482Z,0.87
2022-09-10T22:44:13.926Z,0.73
2022-09-10T22:46:43.133Z,0.90
2022-09-10T22:49:12.973Z,0.70
2022-09-10T22:51:42.147Z,0.70
2022-09-10T22:54:11.317Z,0.70
2022-09-10T22:56:40.043Z,0.80
2022-09-10T22:59:08.568Z,1.03
2022-09-10T23:01:38.707Z,0.87
2022-09-10T23:04:08.424Z,0.70
2022-09-10T23:06:39.104Z,0.80
2022-09-10T23:09:09.161Z,1.00
2022-09-10T23:11:38.055Z,0.80
2022-09-10T23:14:09.193Z,0.90
2022-09-10T23:16:38.888Z,0.73
2022-09-10T23:19:09.008Z,0.80
2022-09-10T23:21:42.702Z,1.40
2022-09-10T23:24:13.838Z,0.80
2022-09-10T23:26:42.708Z,0.83
2022-09-10T23:29:11.276Z,0.73
2022-09-10T23:31:40.998Z,0.90
2022-09-10T23:34:12.331Z,0.77
2022-09-10T23:37:00.301Z,1.00
2022-09-10T23:39:30.769Z,0.80
2022-09-10T23:42:00.342Z,1.10
2022-09-10T23:44:28.988Z,1.00
2022-09-10T23:46:57.592Z,0.53
2022-09-10T23:49:26.094Z,0.70
2022-09-10T23:51:54.848Z,0.93
2022-09-10T23:54:24.748Z,0.80
2022-09-10T23:56:52.799Z,0.50
2022-09-10T23:59:21.869Z,0.67
